sensor_id;sensor_type;location;lat;lon;timestamp;pressure;altitude;pressure_sealevel;temperature;humidity
83424;BME280;73355;49.044;8.686;2023-11-21T00:00:45;99014.69;;;22.91;44.71
83424;BME280;73355;49.044;8.686;2023-11-21T00:03:11;99017.72;;;22.93;44.49
83424;BME280;73355;49.044;8.686;2023-11-21T00:05:39;99018.72;;;22.90;44.38
83424;BME280;73355;49.044;8.686;2023-11-21T00:08:07;99016.22;;;22.92;44.56
83424;BME280;73355;49.044;8.686;2023-11-21T00:10:32;99015.72;;;22.94;44.47
83424;BME280;73355;49.044;8.686;2023-11-21T00:12:57;99013.94;;;22.91;44.42
83424;BME280;73355;49.044;8.686;2023-11-21T00:15:23;99012.69;;;22.92;44.38
83424;BME280;73355;49.044;8.686;2023-11-21T00:17:48;99013.69;;;22.89;44.49
83424;BME280;73355;49.044;8.686;2023-11-21T00:20:13;99011.16;;;22.91;44.47
83424;BME280;73355;49.044;8.686;2023-11-21T00:22:38;99010.16;;;22.88;44.70
83424;BME280;73355;49.044;8.686;2023-11-21T00:25:05;99015.94;;;22.90;44.49
83424;BME280;73355;49.044;8.686;2023-11-21T00:27:31;99009.41;;;22.93;44.52
83424;BME280;73355;49.044;8.686;2023-11-21T00:29:56;99004.63;;;22.94;44.42
83424;BME280;73355;49.044;8.686;2023-11-21T00:32:21;99012.41;;;22.90;44.69
83424;BME280;73355;49.044;8.686;2023-11-21T00:34:47;99008.38;;;22.91;44.43
83424;BME280;73355;49.044;8.686;2023-11-21T00:37:12;99012.94;;;22.88;44.52
83424;BME280;73355;49.044;8.686;2023-11-21T00:39:37;99006.88;;;22.90;44.62
83424;BME280;73355;49.044;8.686;2023-11-21T00:42:03;99005.13;;;22.87;44.45
83424;BME280;73355;49.044;8.686;2023-11-21T00:44:30;99005.38;;;22.89;44.65
83424;BME280;73355;49.044;8.686;2023-11-21T00:46:55;99003.59;;;22.91;44.53
83424;BME280;73355;49.044;8.686;2023-11-21T00:49:20;99005.13;;;22.92;44.40
83424;BME280;73355;49.044;8.686;2023-11-21T00:51:46;99011.69;;;22.89;44.47
83424;BME280;73355;49.044;8.686;2023-11-21T00:54:11;99004.09;;;22.90;44.48
83424;BME280;73355;49.044;8.686;2023-11-21T00:56:36;98999.56;;;22.87;44.74
83424;BME280;73355;49.044;8.686;2023-11-21T00:59:02;99003.38;;;22.89;44.46
83424;BME280;73355;49.044;8.686;2023-11-21T01:01:30;99002.84;;;22.85;44.47
83424;BME280;73355;49.044;8.686;2023-11-21T01:03:55;98996.28;;;22.88;44.36
83424;BME280;73355;49.044;8.686;2023-11-21T01:06:20;98999.31;;;22.90;44.42
83424;BME280;73355;49.044;8.686;2023-11-21T01:08:45;99002.34;;;22.87;44.72
83424;BME280;73355;49.044;8.686;2023-11-21T01:11:11;99003.38;;;22.89;44.53
83424;BME280;73355;49.044;8.686;2023-11-21T01:13:38;99008.38;;;22.85;44.50
83424;BME280;73355;49.044;8.686;2023-11-21T01:16:04;99003.09;;;22.87;44.65
83424;BME280;73355;49.044;8.686;2023-11-21T01:18:31;99006.88;;;22.90;44.62
83424;BME280;73355;49.044;8.686;2023-11-21T01:20:56;99007.88;;;22.92;44.56
83424;BME280;73355;49.044;8.686;2023-11-21T01:23:22;99010.16;;;22.88;44.54
83424;BME280;73355;49.044;8.686;2023-11-21T01:25:47;99009.66;;;22.90;44.60
83424;BME280;73355;49.044;8.686;2023-11-21T01:28:13;99010.66;;;22.87;44.84
83424;BME280;73355;49.044;8.686;2023-11-21T01:30:38;99015.72;;;22.88;44.10
83424;BME280;73355;49.044;8.686;2023-11-21T01:33:04;99013.19;;;22.85;44.48
83424;BME280;73355;49.044;8.686;2023-11-21T01:35:29;99014.19;;;22.87;44.46
83424;BME280;73355;49.044;8.686;2023-11-21T01:37:55;99021.50;;;22.85;44.57
83424;BME280;73355;49.044;8.686;2023-11-21T01:40:20;99023.78;;;22.86;44.53
83424;BME280;73355;49.044;8.686;2023-11-21T01:42:46;99019.25;;;22.83;44.87
83424;BME280;73355;49.044;8.686;2023-11-21T01:45:12;99023.78;;;22.86;44.66
83424;BME280;73355;49.044;8.686;2023-11-21T01:47:38;99017.72;;;22.88;44.41
83424;BME280;73355;49.044;8.686;2023-11-21T01:50:06;99021.50;;;22.90;44.59
83424;BME280;73355;49.044;8.686;2023-11-21T01:52:34;99024.53;;;22.92;44.47
83424;BME280;73355;49.044;8.686;2023-11-21T01:55:00;99020.50;;;22.93;44.35
83424;BME280;73355;49.044;8.686;2023-11-21T01:57:26;99018.50;;;22.94;44.47
83424;BME280;73355;49.044;8.686;2023-11-21T01:59:51;99024.81;;;22.94;44.46
83424;BME280;73355;49.044;8.686;2023-11-21T02:02:19;99024.28;;;22.90;44.37
83424;BME280;73355;49.044;8.686;2023-11-21T02:04:44;99021.00;;;22.92;44.53
83424;BME280;73355;49.044;8.686;2023-11-21T02:07:09;99023.28;;;22.93;44.63
83424;BME280;73355;49.044;8.686;2023-11-21T02:09:35;99024.03;;;22.94;44.45
83424;BME280;73355;49.044;8.686;2023-11-21T02:12:03;99017.97;;;22.90;44.62
83424;BME280;73355;49.044;8.686;2023-11-21T02:14:30;99022.25;;;22.91;44.37
83424;BME280;73355;49.044;8.686;2023-11-21T02:16:56;99012.19;;;22.93;44.35
83424;BME280;73355;49.044;8.686;2023-11-21T02:19:24;99017.25;;;22.95;44.54
83424;BME280;73355;49.044;8.686;2023-11-21T02:21:52;99022.25;;;22.96;44.29
83424;BME280;73355;49.044;8.686;2023-11-21T02:24:22;99027.31;;;22.98;44.43
83424;BME280;73355;49.044;8.686;2023-11-21T02:26:49;99025.03;;;22.96;44.29
83424;BME280;73355;49.044;8.686;2023-11-21T02:29:17;99032.88;;;22.98;44.18
83424;BME280;73355;49.044;8.686;2023-11-21T02:31:43;99034.38;;;22.99;44.43
83424;BME280;73355;49.044;8.686;2023-11-21T02:34:16;99020.50;;;22.99;44.21
83424;BME280;73355;49.044;8.686;2023-11-21T02:36:42;99015.72;;;22.99;44.71
83424;BME280;73355;49.044;8.686;2023-11-21T02:39:08;99010.94;;;23.00;44.40
83424;BME280;73355;49.044;8.686;2023-11-21T02:41:34;99019.25;;;23.00;44.19
83424;BME280;73355;49.044;8.686;2023-11-21T02:44:00;99012.44;;;23.01;44.39
83424;BME280;73355;49.044;8.686;2023-11-21T02:46:25;99010.16;;;22.99;44.10
83424;BME280;73355;49.044;8.686;2023-11-21T02:48:50;99010.16;;;22.94;44.25
83424;BME280;73355;49.044;8.686;2023-11-21T02:51:16;99012.94;;;22.94;44.30
83424;BME280;73355;49.044;8.686;2023-11-21T02:53:41;99009.66;;;22.90;44.52
83424;BME280;73355;49.044;8.686;2023-11-21T02:56:06;99009.16;;;22.91;44.50
83424;BME280;73355;49.044;8.686;2023-11-21T02:58:32;99006.63;;;22.88;44.46
83424;BME280;73355;49.044;8.686;2023-11-21T03:00:57;99006.13;;;22.89;44.53
83424;BME280;73355;49.044;8.686;2023-11-21T03:03:23;99009.16;;;22.86;44.68
83424;BME280;73355;49.044;8.686;2023-11-21T03:05:49;99008.66;;;22.87;44.36
83424;BME280;73355;49.044;8.686;2023-11-21T03:08:14;99006.13;;;22.89;44.51
83424;BME280;73355;49.044;8.686;2023-11-21T03:10:40;99003.59;;;22.91;44.53
83424;BME280;73355;49.044;8.686;2023-11-21T03:13:05;99000.31;;;22.87;44.72
83424;BME280;73355;49.044;8.686;2023-11-21T03:15:30;99008.16;;;22.89;44.43
83424;BME280;73355;49.044;8.686;2023-11-21T03:17:57;99002.06;;;22.90;44.61
83424;BME280;73355;49.044;8.686;2023-11-21T03:20:23;99007.13;;;22.92;44.52
83424;BME280;73355;49.044;8.686;2023-11-21T03:22:48;99003.59;;;22.91;44.35
83424;BME280;73355;49.044;8.686;2023-11-21T03:25:13;99006.63;;;22.88;44.42
83424;BME280;73355;49.044;8.686;2023-11-21T03:27:39;99006.88;;;22.90;44.43
83424;BME280;73355;49.044;8.686;2023-11-21T03:30:04;99011.16;;;22.91;44.39
83424;BME280;73355;49.044;8.686;2023-11-21T03:32:32;99010.66;;;22.87;44.57
83424;BME280;73355;49.044;8.686;2023-11-21T03:34:58;99008.16;;;22.89;44.40
83424;BME280;73355;49.044;8.686;2023-11-21T03:37:24;99005.63;;;22.91;44.40
83424;BME280;73355;49.044;8.686;2023-11-21T03:39:50;99003.84;;;22.93;44.53
83424;BME280;73355;49.044;8.686;2023-11-21T03:42:15;99008.16;;;22.94;44.46
83424;BME280;73355;49.044;8.686;2023-11-21T03:44:41;99007.41;;;22.94;44.40
83424;BME280;73355;49.044;8.686;2023-11-21T03:47:06;99013.69;;;22.94;44.26
83424;BME280;73355;49.044;8.686;2023-11-21T03:49:31;99006.88;;;22.90;44.55
83424;BME280;73355;49.044;8.686;2023-11-21T03:51:58;99016.72;;;22.91;44.52
83424;BME280;73355;49.044;8.686;2023-11-21T03:54:24;99010.66;;;22.92;44.41
83424;BME280;73355;49.044;8.686;2023-11-21T03:56:49;99022.03;;;22.94;44.35
83424;BME280;73355;49.044;8.686;2023-11-21T03:59:14;99020.00;;;22.95;44.45
83424;BME280;73355;49.044;8.686;2023-11-21T04:01:39;99020.75;;;22.90;44.54
83424;BME280;73355;49.044;8.686;2023-11-21T04:04:05;99021.50;;;22.90;44.37
83424;BME280;73355;49.044;8.686;2023-11-21T04:06:30;99021.00;;;22.86;44.44
83424;BME280;73355;49.044;8.686;2023-11-21T04:08:57;99019.25;;;22.89;44.55
83424;BME280;73355;49.044;8.686;2023-11-21T04:11:23;99027.06;;;22.90;44.44
83424;BME280;73355;49.044;8.686;2023-11-21T04:13:48;99030.59;;;22.91;44.50
83424;BME280;73355;49.044;8.686;2023-11-21T04:16:13;99025.81;;;22.86;44.57
83424;BME280;73355;49.044;8.686;2023-11-21T04:18:38;99032.88;;;22.87;44.51
83424;BME280;73355;49.044;8.686;2023-11-21T04:21:05;99025.56;;;22.84;44.85
83424;BME280;73355;49.044;8.686;2023-11-21T04:23:31;99029.84;;;22.85;44.57
83424;BME280;73355;49.044;8.686;2023-11-21T04:25:57;99030.09;;;22.87;44.42
83424;BME280;73355;49.044;8.686;2023-11-21T04:28:25;99042.22;;;22.89;44.30
83424;BME280;73355;49.044;8.686;2023-11-21T04:30:51;99038.91;;;22.91;44.41
83424;BME280;73355;49.044;8.686;2023-11-21T04:33:16;99042.44;;;22.91;44.30
83424;BME280;73355;49.044;8.686;2023-11-21T04:35:41;99032.09;;;22.92;44.52
83424;BME280;73355;49.044;8.686;2023-11-21T04:38:07;99039.19;;;22.87;44.41
83424;BME280;73355;49.044;8.686;2023-11-21T04:40:32;99045.50;;;22.88;44.41
83424;BME280;73355;49.044;8.686;2023-11-21T04:42:57;99040.16;;;22.84;44.48
83424;BME280;73355;49.044;8.686;2023-11-21T04:45:23;99045.22;;;22.86;44.68
83424;BME280;73355;49.044;8.686;2023-11-21T04:47:48;99039.19;;;22.82;44.68
83424;BME280;73355;49.044;8.686;2023-11-21T04:50:13;99039.44;;;22.84;44.58
83424;BME280;73355;49.044;8.686;2023-11-21T04:52:38;99040.44;;;22.81;44.42
83424;BME280;73355;49.044;8.686;2023-11-21T04:55:04;99042.22;;;22.84;44.51
83424;BME280;73355;49.044;8.686;2023-11-21T04:57:31;99048.00;;;22.80;44.61
83424;BME280;73355;49.044;8.686;2023-11-21T04:59:57;99051.03;;;22.82;44.73
83424;BME280;73355;49.044;8.686;2023-11-21T05:02:22;99058.34;;;22.80;44.68
83424;BME280;73355;49.044;8.686;2023-11-21T05:04:48;99050.28;;;22.82;44.63
83424;BME280;73355;49.044;8.686;2023-11-21T05:07:13;99061.09;;;22.80;44.74
83424;BME280;73355;49.044;8.686;2023-11-21T05:09:42;99057.84;;;22.81;44.42
83424;BME280;73355;49.044;8.686;2023-11-21T05:12:09;99061.63;;;22.78;44.61
83424;BME280;73355;49.044;8.686;2023-11-21T05:14:34;99057.84;;;22.81;44.48
83424;BME280;73355;49.044;8.686;2023-11-21T05:16:59;99061.63;;;22.78;44.90
83424;BME280;73355;49.044;8.686;2023-11-21T05:19:26;99070.19;;;22.80;44.62
83424;BME280;73355;49.044;8.686;2023-11-21T05:21:51;99067.19;;;22.84;44.56
83424;BME280;73355;49.044;8.686;2023-11-21T05:24:17;99068.69;;;22.79;44.52
83424;BME280;73355;49.044;8.686;2023-11-21T05:26:42;99069.69;;;22.82;44.74
83424;BME280;73355;49.044;8.686;2023-11-21T05:29:07;99061.63;;;22.78;44.67
83424;BME280;73355;49.044;8.686;2023-11-21T05:31:34;99069.69;;;22.82;44.40
83424;BME280;73355;49.044;8.686;2023-11-21T05:33:59;99079.03;;;22.84;44.72
83424;BME280;73355;49.044;8.686;2023-11-21T05:36:24;99075.50;;;22.84;44.68
83424;BME280;73355;49.044;8.686;2023-11-21T05:38:49;99081.28;;;22.80;44.63
83424;BME280;73355;49.044;8.686;2023-11-21T05:41:15;99085.84;;;22.83;44.57
83424;BME280;73355;49.044;8.686;2023-11-21T05:43:40;99090.88;;;22.85;44.71
83424;BME280;73355;49.044;8.686;2023-11-21T05:46:06;99090.38;;;22.81;44.49
83424;BME280;73355;49.044;8.686;2023-11-21T05:48:32;99100.97;;;22.82;44.47
83424;BME280;73355;49.044;8.686;2023-11-21T05:50:58;99097.19;;;22.85;44.45
83424;BME280;73355;49.044;8.686;2023-11-21T05:53:24;99107.03;;;22.86;44.59
83424;BME280;73355;49.044;8.686;2023-11-21T05:55:49;99109.31;;;22.88;44.32
83424;BME280;73355;49.044;8.686;2023-11-21T05:58:14;99110.06;;;22.88;44.40
83424;BME280;73355;49.044;8.686;2023-11-21T06:00:40;99110.31;;;22.85;44.44
83424;BME280;73355;49.044;8.686;2023-11-21T06:03:05;99111.81;;;22.86;44.56
83424;BME280;73355;49.044;8.686;2023-11-21T06:05:32;99119.66;;;22.82;44.57
83424;BME280;73355;49.044;8.686;2023-11-21T06:07:58;99114.38;;;22.84;44.38
83424;BME280;73355;49.044;8.686;2023-11-21T06:10:24;99120.16;;;22.86;44.38
83424;BME280;73355;49.044;8.686;2023-11-21T06:12:50;99123.19;;;22.88;44.41
83424;BME280;73355;49.044;8.686;2023-11-21T06:15:15;99123.94;;;22.88;44.51
83424;BME280;73355;49.044;8.686;2023-11-21T06:17:42;99125.47;;;22.89;44.26
83424;BME280;73355;49.044;8.686;2023-11-21T06:20:09;99129.75;;;22.90;44.61
83424;BME280;73355;49.044;8.686;2023-11-21T06:22:45;99128.50;;;22.91;44.41
83424;BME280;73355;49.044;8.686;2023-11-21T06:25:12;99135.28;;;22.90;44.33
83424;BME280;73355;49.044;8.686;2023-11-21T06:27:42;99129.75;;;22.90;44.20
83424;BME280;73355;49.044;8.686;2023-11-21T06:30:08;99138.06;;;22.90;44.10
83424;BME280;73355;49.044;8.686;2023-11-21T06:32:35;99147.91;;;22.91;44.25
83424;BME280;73355;49.044;8.686;2023-11-21T06:35:01;99145.91;;;22.92;44.32
83424;BME280;73355;49.044;8.686;2023-11-21T06:37:27;99159.03;;;22.91;44.19
83424;BME280;73355;49.044;8.686;2023-11-21T06:39:53;99152.22;;;22.92;44.35
83424;BME280;73355;49.044;8.686;2023-11-21T06:42:18;99153.47;;;22.91;44.21
83424;BME280;73355;49.044;8.686;2023-11-21T06:44:45;99154.22;;;22.86;44.23
83424;BME280;73355;49.044;8.686;2023-11-21T06:47:10;99148.16;;;22.88;44.33
83424;BME280;73355;49.044;8.686;2023-11-21T06:49:36;99158.03;;;22.89;44.35
83424;BME280;73355;49.044;8.686;2023-11-21T06:52:01;99162.28;;;22.90;44.33
83424;BME280;73355;49.044;8.686;2023-11-21T06:54:28;99157.47;;;22.85;44.28
83424;BME280;73355;49.044;8.686;2023-11-21T06:56:53;99159.00;;;22.86;44.48
83424;BME280;73355;49.044;8.686;2023-11-21T06:59:18;99164.06;;;22.87;44.30
83424;BME280;73355;49.044;8.686;2023-11-21T07:01:43;99163.56;;;22.83;44.42
83424;BME280;73355;49.044;8.686;2023-11-21T07:04:09;99158.00;;;22.83;44.58
83424;BME280;73355;49.044;8.686;2023-11-21T07:06:35;99166.56;;;22.80;44.61
83424;BME280;73355;49.044;8.686;2023-11-21T07:09:00;99175.91;;;22.82;44.55
83424;BME280;73355;49.044;8.686;2023-11-21T07:11:26;99176.66;;;22.77;44.73
83424;BME280;73355;49.044;8.686;2023-11-21T07:13:52;99181.69;;;22.79;44.62
83424;BME280;73355;49.044;8.686;2023-11-21T07:16:17;99184.22;;;22.77;44.68
83424;BME280;73355;49.044;8.686;2023-11-21T07:18:44;99184.47;;;22.79;44.52
83424;BME280;73355;49.044;8.686;2023-11-21T07:21:09;99187.50;;;22.81;44.90
83424;BME280;73355;49.044;8.686;2023-11-21T07:23:37;99191.03;;;22.81;44.71
83424;BME280;73355;49.044;8.686;2023-11-21T07:26:02;99191.81;;;22.82;44.64
83424;BME280;73355;49.044;8.686;2023-11-21T07:28:28;99200.38;;;22.84;44.50
83424;BME280;73355;49.044;8.686;2023-11-21T07:30:53;99201.13;;;22.84;44.44
83424;BME280;73355;49.044;8.686;2023-11-21T07:33:19;99201.88;;;22.79;44.68
83424;BME280;73355;49.044;8.686;2023-11-21T07:35:44;99208.44;;;22.82;44.85
83424;BME280;73355;49.044;8.686;2023-11-21T07:38:09;99206.16;;;22.80;45.13
83424;BME280;73355;49.044;8.686;2023-11-21T07:40:34;99219.81;;;22.84;45.41
83424;BME280;73355;49.044;8.686;2023-11-21T07:43:00;99219.84;;;22.89;45.43
83424;BME280;73355;49.044;8.686;2023-11-21T07:45:25;99215.56;;;22.94;45.45
83424;BME280;73355;49.044;8.686;2023-11-21T07:47:53;99220.34;;;22.93;45.35
83424;BME280;73355;49.044;8.686;2023-11-21T07:50:19;99226.69;;;22.99;45.65
83424;BME280;73355;49.044;8.686;2023-11-21T07:52:45;99221.13;;;23.05;45.40
83424;BME280;73355;49.044;8.686;2023-11-21T07:55:11;99217.63;;;23.10;45.68
83424;BME280;73355;49.044;8.686;2023-11-21T07:57:36;99229.22;;;23.14;45.49
83424;BME280;73355;49.044;8.686;2023-11-21T08:00:02;99224.94;;;23.13;45.71
83424;BME280;73355;49.044;8.686;2023-11-21T08:02:28;99226.22;;;23.18;45.43
83424;BME280;73355;49.044;8.686;2023-11-21T08:04:54;99226.22;;;23.23;45.45
83424;BME280;73355;49.044;8.686;2023-11-21T08:07:21;99229.25;;;23.25;45.60
83424;BME280;73355;49.044;8.686;2023-11-21T08:09:47;99238.13;;;23.29;45.56
83424;BME280;73355;49.044;8.686;2023-11-21T08:12:15;99237.59;;;23.31;45.12
83424;BME280;73355;49.044;8.686;2023-11-21T08:14:40;99230.78;;;23.32;45.02
83424;BME280;73355;49.044;8.686;2023-11-21T08:17:06;99233.06;;;23.33;45.02
83424;BME280;73355;49.044;8.686;2023-11-21T08:19:31;99235.84;;;23.28;45.08
83424;BME280;73355;49.044;8.686;2023-11-21T08:21:58;99242.38;;;23.30;44.90
83424;BME280;73355;49.044;8.686;2023-11-21T08:24:24;99240.38;;;23.31;45.07
83424;BME280;73355;49.044;8.686;2023-11-21T08:26:50;99243.91;;;23.31;45.05
83424;BME280;73355;49.044;8.686;2023-11-21T08:29:16;99248.22;;;23.32;44.42
83424;BME280;73355;49.044;8.686;2023-11-21T08:31:42;99256.53;;;23.32;44.58
83424;BME280;73355;49.044;8.686;2023-11-21T08:34:07;99256.53;;;23.32;44.48
83424;BME280;73355;49.044;8.686;2023-11-21T08:36:33;99255.75;;;23.26;44.75
83424;BME280;73355;49.044;8.686;2023-11-21T08:38:59;99260.06;;;23.27;44.18
83424;BME280;73355;49.044;8.686;2023-11-21T08:41:24;99266.88;;;23.26;44.50
83424;BME280;73355;49.044;8.686;2023-11-21T08:43:50;99259.28;;;23.21;44.58
83424;BME280;73355;49.044;8.686;2023-11-21T08:46:16;99262.81;;;23.22;44.41
83424;BME280;73355;49.044;8.686;2023-11-21T08:48:42;99253.25;;;23.23;44.39
83424;BME280;73355;49.044;8.686;2023-11-21T08:51:09;99255.25;;;23.22;44.53
83424;BME280;73355;49.044;8.686;2023-11-21T08:53:36;99267.13;;;23.23;44.26
83424;BME280;73355;49.044;8.686;2023-11-21T08:56:03;99263.59;;;23.22;44.53
83424;BME280;73355;49.044;8.686;2023-11-21T08:58:29;99267.63;;;23.21;44.29
83424;BME280;73355;49.044;8.686;2023-11-21T09:00:55;99275.19;;;23.21;44.15
83424;BME280;73355;49.044;8.686;2023-11-21T09:03:21;99277.19;;;23.20;44.05
83424;BME280;73355;49.044;8.686;2023-11-21T09:05:46;99275.69;;;23.19;44.07
83424;BME280;73355;49.044;8.686;2023-11-21T09:08:11;99272.66;;;23.17;44.10
83424;BME280;73355;49.044;8.686;2023-11-21T09:10:37;99278.69;;;23.10;44.19
83424;BME280;73355;49.044;8.686;2023-11-21T09:13:02;99280.72;;;23.10;43.72
83424;BME280;73355;49.044;8.686;2023-11-21T09:15:28;99285.78;;;23.11;43.83
83424;BME280;73355;49.044;8.686;2023-11-21T09:17:53;99290.06;;;23.12;43.73
83424;BME280;73355;49.044;8.686;2023-11-21T09:20:18;99288.03;;;23.13;43.89
83424;BME280;73355;49.044;8.686;2023-11-21T09:22:48;99299.09;;;23.07;44.08
83424;BME280;73355;49.044;8.686;2023-11-21T09:25:13;99301.41;;;23.08;43.76
83424;BME280;73355;49.044;8.686;2023-11-21T09:27:38;99308.47;;;23.10;43.97
83424;BME280;73355;49.044;8.686;2023-11-21T09:30:04;99314.28;;;23.06;44.03
83424;BME280;73355;49.044;8.686;2023-11-21T09:32:30;99310.97;;;23.07;43.96
83424;BME280;73355;49.044;8.686;2023-11-21T09:34:56;99324.38;;;23.09;44.04
83424;BME280;73355;49.044;8.686;2023-11-21T09:37:23;99323.88;;;23.11;44.13
83424;BME280;73355;49.044;8.686;2023-11-21T09:39:49;99325.41;;;23.12;43.97
83424;BME280;73355;49.044;8.686;2023-11-21T09:42:54;99323.13;;;23.16;44.21
83424;BME280;73355;49.044;8.686;2023-11-21T09:45:29;99326.91;;;23.13;44.21
83424;BME280;73355;49.044;8.686;2023-11-21T09:47:59;99324.38;;;23.15;44.01
83424;BME280;73355;49.044;8.686;2023-11-21T09:50:25;99327.94;;;23.15;44.22
83424;BME280;73355;49.044;8.686;2023-11-21T09:55:34;99333.00;;;23.17;44.30
83424;BME280;73355;49.044;8.686;2023-11-21T09:58:02;99334.50;;;23.18;44.07
83424;BME280;73355;49.044;8.686;2023-11-21T10:00:28;99336.78;;;23.19;44.07
83424;BME280;73355;49.044;8.686;2023-11-21T10:02:58;99331.97;;;23.20;44.26
83424;BME280;73355;49.044;8.686;2023-11-21T10:05:23;99339.06;;;23.21;44.27
83424;BME280;73355;49.044;8.686;2023-11-21T10:07:52;99335.03;;;23.22;44.08
83424;BME280;73355;49.044;8.686;2023-11-21T10:10:19;99330.72;;;23.21;44.01
83424;BME280;73355;49.044;8.686;2023-11-21T10:12:49;99335.03;;;23.22;43.98
83424;BME280;73355;49.044;8.686;2023-11-21T10:15:15;99329.47;;;23.22;44.15
83424;BME280;73355;49.044;8.686;2023-11-21T10:17:44;99335.28;;;23.24;44.18
83424;BME280;73355;49.044;8.686;2023-11-21T10:20:13;99337.31;;;23.23;44.00
83424;BME280;73355;49.044;8.686;2023-11-21T10:22:43;99336.03;;;23.24;44.30
83424;BME280;73355;49.044;8.686;2023-11-21T10:25:12;99336.78;;;23.25;44.92
83424;BME280;73355;49.044;8.686;2023-11-21T10:27:42;99336.03;;;23.24;44.86
83424;BME280;73355;49.044;8.686;2023-11-21T10:30:09;99335.53;;;23.26;44.68
83424;BME280;73355;49.044;8.686;2023-11-21T10:32:38;99330.75;;;23.26;44.67
83424;BME280;73355;49.044;8.686;2023-11-21T10:35:03;99334.28;;;23.27;44.46
83424;BME280;73355;49.044;8.686;2023-11-21T10:37:39;99339.34;;;23.28;44.61
83424;BME280;73355;49.044;8.686;2023-11-21T10:40:11;99332.28;;;23.27;44.14
83424;BME280;73355;49.044;8.686;2023-11-21T10:42:37;99344.13;;;23.28;44.60
83424;BME280;73355;49.044;8.686;2023-11-21T10:45:04;99346.41;;;23.29;44.85
83424;BME280;73355;49.044;8.686;2023-11-21T10:47:34;99349.44;;;23.31;45.31
83424;BME280;73355;49.044;8.686;2023-11-21T10:50:01;99352.22;;;23.31;45.20
83424;BME280;73355;49.044;8.686;2023-11-21T10:52:27;99350.97;;;23.32;44.82
83424;BME280;73355;49.044;8.686;2023-11-21T10:54:52;99355.75;;;23.32;44.76
83424;BME280;73355;49.044;8.686;2023-11-21T10:57:18;99352.97;;;23.32;44.54
83424;BME280;73355;49.044;8.686;2023-11-21T10:59:46;99361.81;;;23.30;44.68
83424;BME280;73355;49.044;8.686;2023-11-21T11:02:33;99353.75;;;23.32;44.50
83424;BME280;73355;49.044;8.686;2023-11-21T11:04:59;99361.56;;;23.28;44.60
83424;BME280;73355;49.044;8.686;2023-11-21T11:07:27;99367.34;;;23.30;44.60
83424;BME280;73355;49.044;8.686;2023-11-21T11:09:55;99361.03;;;23.30;44.29
83424;BME280;73355;49.044;8.686;2023-11-21T11:12:21;99363.09;;;23.29;44.21
83424;BME280;73355;49.044;8.686;2023-11-21T11:14:48;99366.59;;;23.30;44.42
83424;BME280;73355;49.044;8.686;2023-11-21T11:17:14;99363.81;;;23.30;44.33
83424;BME280;73355;49.044;8.686;2023-11-21T11:19:39;99365.88;;;23.29;44.18
83424;BME280;73355;49.044;8.686;2023-11-21T11:22:24;99370.13;;;23.30;44.39
83424;BME280;73355;49.044;8.686;2023-11-21T11:25:32;99363.09;;;23.29;44.34
83424;BME280;73355;49.044;8.686;2023-11-21T11:28:21;99363.09;;;23.29;44.24
83424;BME280;73355;49.044;8.686;2023-11-21T11:31:10;99359.28;;;23.27;44.40
83424;BME280;73355;49.044;8.686;2023-11-21T11:33:48;99362.81;;;23.27;44.56
83424;BME280;73355;49.044;8.686;2023-11-21T11:36:29;99374.94;;;23.30;44.52
83424;BME280;73355;49.044;8.686;2023-11-21T11:38:57;99363.81;;;23.30;44.58
83424;BME280;73355;49.044;8.686;2023-11-21T11:41:27;99372.91;;;23.30;44.46
83424;BME280;73355;49.044;8.686;2023-11-21T11:43:54;99375.69;;;23.30;44.33
83424;BME280;73355;49.044;8.686;2023-11-21T11:46:20;99381.22;;;23.25;44.28
83424;BME280;73355;49.044;8.686;2023-11-21T11:49:02;99379.47;;;23.27;44.29
83424;BME280;73355;49.044;8.686;2023-11-21T11:51:28;99382.25;;;23.27;44.46
83424;BME280;73355;49.044;8.686;2023-11-21T11:53:53;99380.47;;;23.30;44.38
83424;BME280;73355;49.044;8.686;2023-11-21T11:58:55;99380.00;;;23.31;44.17
83424;BME280;73355;49.044;8.686;2023-11-21T12:01:22;99384.28;;;23.32;44.30
83424;BME280;73355;49.044;8.686;2023-11-21T12:07:00;99386.31;;;23.32;44.31
83424;BME280;73355;49.044;8.686;2023-11-21T12:09:28;99383.53;;;23.32;44.27
83424;BME280;73355;49.044;8.686;2023-11-21T12:11:54;99396.16;;;23.33;44.29
83424;BME280;73355;49.044;8.686;2023-11-21T12:14:22;99381.78;;;23.34;44.15
83424;BME280;73355;49.044;8.686;2023-11-21T12:16:48;99396.44;;;23.35;44.27
83424;BME280;73355;49.044;8.686;2023-11-21T12:19:14;99393.13;;;23.36;44.19
83424;BME280;73355;49.044;8.686;2023-11-21T12:21:40;99397.94;;;23.36;44.03
83424;BME280;73355;49.044;8.686;2023-11-21T12:24:06;99392.34;;;23.30;44.23
83424;BME280;73355;49.044;8.686;2023-11-21T12:26:34;99396.66;;;23.31;44.36
83424;BME280;73355;49.044;8.686;2023-11-21T12:28:59;99401.72;;;23.33;44.31
83424;BME280;73355;49.044;8.686;2023-11-21T12:31:26;99405.25;;;23.33;44.18
83424;BME280;73355;49.044;8.686;2023-11-21T12:33:51;99411.81;;;23.36;44.69
83424;BME280;73355;49.044;8.686;2023-11-21T12:36:17;99410.06;;;23.38;44.70
83424;BME280;73355;49.044;8.686;2023-11-21T12:38:42;99414.34;;;23.34;44.92
83424;BME280;73355;49.044;8.686;2023-11-21T12:41:09;99418.13;;;23.36;45.29
83424;BME280;73355;49.044;8.686;2023-11-21T12:43:35;99419.91;;;23.34;45.36
83424;BME280;73355;49.044;8.686;2023-11-21T12:46:08;99412.84;;;23.38;45.22
83424;BME280;73355;49.044;8.686;2023-11-21T12:48:43;99423.72;;;23.42;45.48
83424;BME280;73355;49.044;8.686;2023-11-21T12:51:12;99417.66;;;23.43;45.79
83424;BME280;73355;49.044;8.686;2023-11-21T12:53:41;99434.59;;;23.45;45.58
83424;BME280;73355;49.044;8.686;2023-11-21T12:56:10;99434.06;;;23.41;45.81
83424;BME280;73355;49.044;8.686;2023-11-21T12:58:36;99423.50;;;23.45;45.83
83424;BME280;73355;49.044;8.686;2023-11-21T13:01:02;99429.31;;;23.47;45.90
83424;BME280;73355;49.044;8.686;2023-11-21T13:03:30;99430.34;;;23.50;46.02
83424;BME280;73355;49.044;8.686;2023-11-21T13:05:56;99433.41;;;23.52;46.16